Rice Lake, WI

9:58 PM CDT on May 25, 2015 (GMT -0500)
WIDOT | | Change Station
CLOSE
Current Station
Personal Weather Station
Location: Haugen, WI
Elevation: 1280 ft
Nearby Weather Stations

Elev 1280 ft 45.64 °N, 91.78 °W | Updated 53 minutes ago

Mostly Cloudy
Mostly Cloudy
62 °F
Feels Like 62 °F
N
3
Wind Variable Wind from South
Gusts 4.0 mph

Today
High -- | Low -- °F
--% Chance of Precip.
Yesterday
High -- | Low -- °F
Precip. -- in
5:26 AM 8:42 PM
First Quarter, 54% visible
Pressure 29.76 in
Visibility 10.0 miles
Clouds Scattered Clouds 4900 ft
Dew Point 56 °F
Humidity 81%
Rainfall in
Snow Depth Not available.
UV 0 out of 12
Pollen .90 out of 12
Air Quality Not available.
Flu Activity Sporadic
METAR KUBE 260235Z AUTO 17005KT 10SM SCT049 15/14 A2976 RMK AO2

More Conditions Fewer Conditions

Pressure 29.76 in
Visibility 10.0 miles
Clouds Scattered Clouds 4900 ft
Dew Point 56 °F
Humidity 81%
Rainfall in
Snow Depth Not available.
UV 0 out of 12
Pollen .90 out of 12
Air Quality Not available.
Flu Activity Sporadic
METAR KUBE 260235Z AUTO 17005KT 10SM SCT049 15/14 A2976 RMK AO2

More Conditions Fewer Conditions

10-Day Weather Forecast

Almanac

Astronomy

May. 25, 2015 Rise Set
Actual Time
Civil Twilight
Nautical Twilight
Astronomical Twilight
Moon
Length of Visible Light
Length of Day
Tomorrow will be .
, % of the Moon is Illuminated

Today's Extremes

State Highs State Lows

Community

WunderPhotos

Upload Photos

1,824,238 photos uploaded!

WunderBlogs® & News

Nearby

Air Quality

  Air Quality AQ Index Pollutant
Not available.

Snow Depth

Station Depth Elevation

Earthquake Activity

City Distance Mag. Time & Date
Minimum magnitude displayed is 2.5.

Coastal Water Temperatures

Place Temperature

Stations

Nearby Weather Stations

Station Location Temp. Windchill Dew Point Humidity Wind Precip. Elev Updated Type